Vanguard — WDD5619 — position and weather

sailwx.info

Track history (hours):
 
Tides and Currents Weather Stations Pressure Air Temp Water Temp Dewpoint Dewpoint Depression Visibility Wind Speed Wind Dir Waves Ship Positions

Vanguard

Owner: Galbraith, Ruth A, Oxnard, CA. More information available from US FCC via Universal Licensing System and Coast Guard Vessel Documentation Center.

Last reported at 2017-Nov-26 00:51 UTC. Time now 2017-Dec-11 15:15 UTC.
Position N 34°10' W 119°14'.
Warning: this ship's position is 15 days out of date.

Length 20 m.

Type: Passenger vessel. MMSI: 367131070.

Date/timePositionNaut miles runAvg speedWind from/ knotsBaromVisibWave heightAir tempDewpointWater temp
2017-Nov-26 00:51N 34°10' W 119°14'0 0.9
2017-Nov-26 00:26N 34°10' W 119°13'3 7.8
2017-Nov-26 00:00N 34°07' W 119°16'610.8
2017-Nov-25 23:28N 34°02' W 119°20'2 3.2
2017-Nov-25 22:47N 34°01' W 119°22'0 0.2
2017-Nov-25 22:27N 34°01' W 119°22'0 0.0
2017-Nov-25 21:54N 34°01' W 119°22'0 0.0
2017-Nov-25 21:27N 34°01' W 119°22'0 0.0
2017-Nov-25 20:57N 34°01' W 119°22'0 0.0
2017-Nov-25 20:24N 34°01' W 119°22'0 0.1
2017-Nov-25 19:57N 34°01' W 119°22'0 0.0
2017-Nov-25 19:21N 34°01' W 119°22'0 0.1
2017-Nov-25 18:51N 34°01' W 119°22'510.6
2017-Nov-25 18:20N 34°05' W 119°18'411.2
2017-Nov-25 18:00N 34°08' W 119°15'2 4.0
2017-Nov-25 17:30N 34°10' W 119°14'0 0.9
2017-Nov-25 16:59N 34°10' W 119°13'0 0.8
2017-Nov-25 16:27N 34°10' W 119°14'0 0.0
2017-Nov-25 00:47N 34°10' W 119°14'0 0.2
2017-Nov-25 00:22N 34°10' W 119°14'4 9.2
2017-Nov-24 23:57N 34°07' W 119°17'5 9.5
2017-Nov-24 23:25N 34°03' W 119°20'2 3.7
2017-Nov-24 22:48N 34°01' W 119°22'0 0.0
2017-Nov-24 22:30N 34°01' W 119°22'0 0.0
2017-Nov-24 22:00N 34°01' W 119°22'0 0.0
2017-Nov-24 21:30N 34°01' W 119°22'0 0.0
2017-Nov-24 21:00N 34°01' W 119°22'0 0.0
2017-Nov-24 20:30N 34°01' W 119°22'0 0.0
2017-Nov-24 20:00N 34°01' W 119°22'0 0.0
2017-Nov-24 19:30N 34°01' W 119°22'0 0.0
2017-Nov-24 19:00N 34°01' W 119°22'4 6.3
2017-Nov-24 18:18N 34°05' W 119°19'411.6
2017-Nov-24 17:59N 34°07' W 119°16'3 2.0
2017-Nov-24 16:22N 34°10' W 119°14'0 0.0
2017-Nov-23 00:28N 34°10' W 119°13'510.3
2017-Nov-22 23:59N 34°06' W 119°17'611.9
2017-Nov-22 23:30N 34°01' W 119°21'3 4.8
2017-Nov-22 22:56N 34°01' W 119°24'511.7
2017-Nov-22 22:30N 34°05' W 119°20'4 8.3
2017-Nov-22 21:58N 34°08' W 119°16'3 6.4
2017-Nov-22 21:28N 34°10' W 119°14'0 0.0
2017-Nov-22 20:55N 34°10' W 119°14'0 0.4
2017-Nov-22 20:29N 34°10' W 119°14'510.1
2017-Nov-22 19:59N 34°06' W 119°17'611.7
2017-Nov-22 19:30N 34°01' W 119°21'  
2017-Nov-20 00:23N 34°10' W 119°14'4 9.0
2017-Nov-19 23:54N 34°06' W 119°16'511.4
2017-Nov-19 23:30N 34°03' W 119°20'4 7.3
2017-Nov-19 22:59N 34°01' W 119°23'3 6.6
2017-Nov-19 22:30N 34°04' W 119°22'711.7
2017-Nov-19 21:57N 34°08' W 119°16'3 2.9
2017-Nov-19 20:54N 34°10' W 119°14'2 3.4
2017-Nov-19 20:23N 34°09' W 119°15'411.6
2017-Nov-19 20:00N 34°05' W 119°18'4 8.5
2017-Nov-19 19:30N 34°02' W 119°21'2 2.6
2017-Nov-19 18:45N 34°02' W 119°23'411.8
2017-Nov-19 18:26N 34°04' W 119°20'510.6
2017-Nov-19 17:57N 34°08' W 119°16'3 0.2
2017-Nov-19 01:08N 34°10' W 119°14'0 0.0
2017-Nov-19 00:59N 34°10' W 119°14'4 4.8
2017-Nov-19 00:13N 34°07' W 119°16'311.8
2017-Nov-19 00:00N 34°05' W 119°17'5 9.4
2017-Nov-18 23:28N 34°01' W 119°21'2 3.5
2017-Nov-18 22:57N 34°02' W 119°23'3 6.1
2017-Nov-18 22:30N 34°04' W 119°22'611.3
2017-Nov-18 22:00N 34°07' W 119°17'4 5.1
2017-Nov-18 21:15N 34°10' W 119°14'0 0.0
2017-Nov-18 20:57N 34°10' W 119°14'3 6.7
2017-Nov-18 20:27N 34°07' W 119°15'4 9.1
2017-Nov-18 20:00N 34°04' W 119°19'4 7.5
2017-Nov-18 19:29N 34°01' W 119°22'1 1.3
2017-Nov-18 19:00N 34°01' W 119°22'2 4.6
2017-Nov-18 18:30N 34°03' W 119°20'710.7
2017-Nov-18 17:51N 34°08' W 119°15'2 0.1
2017-Nov-18 00:32N 34°10' W 119°14'0 0.0
2017-Nov-18 00:29N 34°10' W 119°14'4 7.0
2017-Nov-17 23:57N 34°07' W 119°16'510.1
2017-Nov-17 23:26N 34°03' W 119°20'2 3.3
2017-Nov-17 22:44N 34°01' W 119°22'0 1.0
2017-Nov-17 22:14N 34°01' W 119°21'0 1.7
2017-Nov-17 21:59N 34°01' W 119°22'0 0.0
2017-Nov-17 21:30N 34°01' W 119°22'0 0.0
2017-Nov-17 20:59N 34°01' W 119°22'0 0.0
2017-Nov-17 20:28N 34°01' W 119°22'0 0.0
2017-Nov-17 19:59N 34°01' W 119°22'0 0.0
2017-Nov-17 19:29N 34°01' W 119°22'0 0.1
2017-Nov-17 18:50N 34°01' W 119°22'2 5.9
2017-Nov-17 18:30N 34°03' W 119°21'611.9
2017-Nov-17 18:00N 34°07' W 119°16'3 6.6
2017-Nov-17 17:30N 34°10' W 119°14'0 0.0
2017-Nov-17 17:00N 34°10' W 119°14'  
Track history (hours):
 
Tides and Currents Weather Stations Pressure Air Temp Water Temp Dewpoint Dewpoint Depression Visibility Wind Speed Wind Dir Waves Ship Positions

Vanguard

Owner: Galbraith, Ruth A, Oxnard, CA. More information available from US FCC via Universal Licensing System and Coast Guard Vessel Documentation Center.

Last reported at 2017-Nov-26 00:51 UTC. Time now 2017-Dec-11 15:15 UTC.
Position N 34°10' W 119°14'.
Warning: this ship's position is 15 days out of date.

Length 20 m.

Type: Passenger vessel. MMSI: 367131070.

Date/timePositionNaut miles runAvg speedWind from/ knotsBaromVisibWave heightAir tempDewpointWater temp
2017-Nov-26 00:51N 34°10' W 119°14'0 0.9
2017-Nov-26 00:26N 34°10' W 119°13'3 7.8
2017-Nov-26 00:00N 34°07' W 119°16'610.8
2017-Nov-25 23:28N 34°02' W 119°20'2 3.2
2017-Nov-25 22:47N 34°01' W 119°22'0 0.2
2017-Nov-25 22:27N 34°01' W 119°22'0 0.0
2017-Nov-25 21:54N 34°01' W 119°22'0 0.0
2017-Nov-25 21:27N 34°01' W 119°22'0 0.0
2017-Nov-25 20:57N 34°01' W 119°22'0 0.0
2017-Nov-25 20:24N 34°01' W 119°22'0 0.1
2017-Nov-25 19:57N 34°01' W 119°22'0 0.0
2017-Nov-25 19:21N 34°01' W 119°22'0 0.1
2017-Nov-25 18:51N 34°01' W 119°22'510.6
2017-Nov-25 18:20N 34°05' W 119°18'411.2
2017-Nov-25 18:00N 34°08' W 119°15'2 4.0
2017-Nov-25 17:30N 34°10' W 119°14'0 0.9
2017-Nov-25 16:59N 34°10' W 119°13'0 0.8
2017-Nov-25 16:27N 34°10' W 119°14'0 0.0
2017-Nov-25 00:47N 34°10' W 119°14'0 0.2
2017-Nov-25 00:22N 34°10' W 119°14'4 9.2
2017-Nov-24 23:57N 34°07' W 119°17'5 9.5
2017-Nov-24 23:25N 34°03' W 119°20'2 3.7
2017-Nov-24 22:48N 34°01' W 119°22'0 0.0
2017-Nov-24 22:30N 34°01' W 119°22'0 0.0
2017-Nov-24 22:00N 34°01' W 119°22'0 0.0
2017-Nov-24 21:30N 34°01' W 119°22'0 0.0
2017-Nov-24 21:00N 34°01' W 119°22'0 0.0
2017-Nov-24 20:30N 34°01' W 119°22'0 0.0
2017-Nov-24 20:00N 34°01' W 119°22'0 0.0
2017-Nov-24 19:30N 34°01' W 119°22'0 0.0
2017-Nov-24 19:00N 34°01' W 119°22'4 6.3
2017-Nov-24 18:18N 34°05' W 119°19'411.6
2017-Nov-24 17:59N 34°07' W 119°16'3 2.0
2017-Nov-24 16:22N 34°10' W 119°14'0 0.0
2017-Nov-23 00:28N 34°10' W 119°13'510.3
2017-Nov-22 23:59N 34°06' W 119°17'611.9
2017-Nov-22 23:30N 34°01' W 119°21'3 4.8
2017-Nov-22 22:56N 34°01' W 119°24'511.7
2017-Nov-22 22:30N 34°05' W 119°20'4 8.3
2017-Nov-22 21:58N 34°08' W 119°16'3 6.4
2017-Nov-22 21:28N 34°10' W 119°14'0 0.0
2017-Nov-22 20:55N 34°10' W 119°14'0 0.4
2017-Nov-22 20:29N 34°10' W 119°14'510.1
2017-Nov-22 19:59N 34°06' W 119°17'611.7
2017-Nov-22 19:30N 34°01' W 119°21'  
2017-Nov-20 00:23N 34°10' W 119°14'4 9.0
2017-Nov-19 23:54N 34°06' W 119°16'511.4
2017-Nov-19 23:30N 34°03' W 119°20'4 7.3
2017-Nov-19 22:59N 34°01' W 119°23'3 6.6
2017-Nov-19 22:30N 34°04' W 119°22'711.7
2017-Nov-19 21:57N 34°08' W 119°16'3 2.9
2017-Nov-19 20:54N 34°10' W 119°14'2 3.4
2017-Nov-19 20:23N 34°09' W 119°15'411.6
2017-Nov-19 20:00N 34°05' W 119°18'4 8.5
2017-Nov-19 19:30N 34°02' W 119°21'2 2.6
2017-Nov-19 18:45N 34°02' W 119°23'411.8
2017-Nov-19 18:26N 34°04' W 119°20'510.6
2017-Nov-19 17:57N 34°08' W 119°16'3 0.2
2017-Nov-19 01:08N 34°10' W 119°14'0 0.0
2017-Nov-19 00:59N 34°10' W 119°14'4 4.8
2017-Nov-19 00:13N 34°07' W 119°16'311.8
2017-Nov-19 00:00N 34°05' W 119°17'5 9.4
2017-Nov-18 23:28N 34°01' W 119°21'2 3.5
2017-Nov-18 22:57N 34°02' W 119°23'3 6.1
2017-Nov-18 22:30N 34°04' W 119°22'611.3
2017-Nov-18 22:00N 34°07' W 119°17'4 5.1
2017-Nov-18 21:15N 34°10' W 119°14'0 0.0
2017-Nov-18 20:57N 34°10' W 119°14'3 6.7
2017-Nov-18 20:27N 34°07' W 119°15'4 9.1
2017-Nov-18 20:00N 34°04' W 119°19'4 7.5
2017-Nov-18 19:29N 34°01' W 119°22'1 1.3
2017-Nov-18 19:00N 34°01' W 119°22'2 4.6
2017-Nov-18 18:30N 34°03' W 119°20'710.7
2017-Nov-18 17:51N 34°08' W 119°15'2 0.1
2017-Nov-18 00:32N 34°10' W 119°14'0 0.0
2017-Nov-18 00:29N 34°10' W 119°14'4 7.0
2017-Nov-17 23:57N 34°07' W 119°16'510.1
2017-Nov-17 23:26N 34°03' W 119°20'2 3.3
2017-Nov-17 22:44N 34°01' W 119°22'0 1.0
2017-Nov-17 22:14N 34°01' W 119°21'0 1.7
2017-Nov-17 21:59N 34°01' W 119°22'0 0.0
2017-Nov-17 21:30N 34°01' W 119°22'0 0.0
2017-Nov-17 20:59N 34°01' W 119°22'0 0.0
2017-Nov-17 20:28N 34°01' W 119°22'0 0.0
2017-Nov-17 19:59N 34°01' W 119°22'0 0.0
2017-Nov-17 19:29N 34°01' W 119°22'0 0.1
2017-Nov-17 18:50N 34°01' W 119°22'2 5.9
2017-Nov-17 18:30N 34°03' W 119°21'611.9
2017-Nov-17 18:00N 34°07' W 119°16'3 6.6
2017-Nov-17 17:30N 34°10' W 119°14'0 0.0
2017-Nov-17 17:00N 34°10' W 119°14'  

Dump ship's entire track history